createdAt,value
2019-05-16T00:00:31.596Z,38.33
2019-05-16T00:03:05.341Z,38.34
2019-05-16T00:05:50.817Z,38.31
2019-05-16T00:08:14.801Z,38.33
2019-05-16T00:10:48.789Z,38.32
2019-05-16T00:13:22.759Z,38.32
2019-05-16T00:15:58.550Z,38.31
2019-05-16T00:18:31.947Z,38.29
2019-05-16T00:21:05.704Z,38.29
2019-05-16T00:23:39.441Z,38.29
2019-05-16T00:26:13.170Z,38.27
2019-05-16T00:28:48.450Z,38.24
2019-05-16T00:31:22.868Z,38.26
2019-05-16T00:33:57.861Z,38.25
2019-05-16T00:36:32.172Z,38.23
2019-05-16T00:39:08.386Z,38.22
2019-05-16T00:41:42.624Z,38.22
2019-05-16T00:44:18.796Z,38.20
2019-05-16T00:46:51.978Z,38.19
2019-05-16T00:49:27.965Z,38.18
2019-05-16T00:52:01.201Z,38.19
2019-05-16T00:54:34.974Z,38.15
2019-05-16T00:57:08.756Z,38.15
2019-05-16T00:59:42.512Z,38.13
2019-05-16T01:02:18.188Z,38.13
2019-05-16T01:04:51.927Z,38.14
2019-05-16T01:07:27.603Z,38.10
2019-05-16T01:10:01.201Z,38.10
2019-05-16T01:12:34.854Z,38.09
2019-05-16T01:15:09.434Z,38.09
2019-05-16T01:17:43.162Z,38.08
2019-05-16T01:20:18.957Z,38.06
2019-05-16T01:22:52.723Z,38.06
2019-05-16T01:25:28.198Z,38.06
2019-05-16T01:28:02.274Z,38.06
2019-05-16T01:30:38.103Z,38.04
2019-05-16T01:33:11.612Z,38.05
2019-05-16T01:35:45.195Z,38.04
2019-05-16T01:38:19.163Z,38.02
2019-05-16T01:40:53.133Z,38.03
2019-05-16T01:43:28.383Z,38.03
2019-05-16T01:46:02.653Z,37.99
2019-05-16T01:48:38.163Z,37.99
2019-05-16T01:51:11.787Z,38.02
2019-05-16T01:53:45.548Z,37.98
2019-05-16T01:56:20.773Z,37.97
2019-05-16T01:58:54.517Z,37.94
2019-05-16T02:01:28.849Z,37.93
2019-05-16T02:04:02.995Z,37.94
2019-05-16T02:06:48.416Z,37.93
2019-05-16T02:09:12.442Z,37.94
2019-05-16T02:11:48.091Z,37.92
2019-05-16T02:14:22.841Z,37.92
2019-05-16T02:16:58.041Z,37.91
2019-05-16T02:19:32.030Z,37.89
2019-05-16T02:22:05.670Z,37.91
2019-05-16T02:24:39.444Z,37.89
2019-05-16T02:27:13.173Z,37.89
2019-05-16T02:29:47.053Z,37.86
2019-05-16T02:32:22.268Z,37.84
2019-05-16T02:34:56.304Z,37.85
2019-05-16T02:37:34.382Z,37.84
2019-05-16T02:40:06.937Z,37.85
2019-05-16T02:42:41.904Z,37.86
2019-05-16T02:45:16.115Z,37.84
2019-05-16T02:47:51.331Z,37.85
2019-05-16T02:50:25.285Z,37.83
2019-05-16T02:53:01.467Z,37.84
2019-05-16T02:55:34.509Z,37.82
2019-05-16T02:58:11.221Z,37.85
2019-05-16T03:00:43.572Z,37.84
2019-05-16T03:03:17.342Z,37.82
2019-05-16T03:05:51.348Z,37.80
2019-05-16T03:08:25.261Z,37.79
2019-05-16T03:11:01.021Z,37.79
2019-05-16T03:13:34.477Z,37.78
2019-05-16T03:16:12.044Z,37.77
2019-05-16T03:18:45.709Z,37.78
2019-05-16T03:21:21.684Z,37.77
2019-05-16T03:23:54.855Z,37.76
2019-05-16T03:26:31.276Z,37.76
2019-05-16T03:29:04.184Z,37.75
2019-05-16T03:31:43.659Z,37.75
2019-05-16T03:34:16.209Z,37.73
2019-05-16T03:36:53.755Z,37.71
2019-05-16T03:39:24.089Z,37.71
2019-05-16T03:42:00.900Z,37.71
2019-05-16T03:44:33.265Z,37.71
2019-05-16T03:47:07.003Z,37.70
2019-05-16T03:49:42.200Z,37.67
2019-05-16T03:52:16.411Z,37.66
2019-05-16T03:54:50.718Z,37.67
2019-05-16T03:57:24.662Z,37.67
2019-05-16T04:00:00.613Z,37.66
2019-05-16T04:02:34.466Z,37.66
2019-05-16T04:05:11.133Z,37.67
2019-05-16T04:07:43.872Z,37.67
2019-05-16T04:10:17.599Z,37.67
2019-05-16T04:12:51.442Z,37.66
2019-05-16T04:15:25.278Z,37.64
2019-05-16T04:18:01.489Z,37.63
2019-05-16T04:20:35.982Z,37.63
2019-05-16T04:23:11.174Z,37.64
2019-05-16T04:25:47.042Z,37.62
2019-05-16T04:28:21.763Z,37.61
2019-05-16T04:30:56.259Z,37.63
2019-05-16T04:33:30.876Z,37.61
2019-05-16T04:36:05.113Z,37.62
2019-05-16T04:38:42.870Z,37.59
2019-05-16T04:41:14.308Z,37.59
2019-05-16T04:43:50.761Z,37.61
2019-05-16T04:46:24.775Z,37.62
2019-05-16T04:49:01.489Z,37.62
2019-05-16T04:51:33.979Z,37.62
2019-05-16T04:54:11.425Z,37.61
2019-05-16T04:56:45.449Z,37.63
2019-05-16T04:59:20.850Z,37.60
2019-05-16T05:01:56.580Z,37.63
2019-05-16T05:04:30.851Z,37.59
2019-05-16T05:07:04.663Z,37.59
2019-05-16T05:09:40.913Z,37.59
2019-05-16T05:12:13.815Z,37.58
2019-05-16T05:14:47.570Z,37.57
2019-05-16T05:17:21.328Z,37.60
2019-05-16T05:19:55.067Z,37.54
2019-05-16T05:22:30.392Z,37.56
2019-05-16T05:25:04.460Z,37.56
2019-05-16T05:27:38.190Z,37.56
2019-05-16T05:30:12.303Z,37.57
2019-05-16T05:32:46.055Z,37.57
2019-05-16T05:35:20.745Z,37.56
2019-05-16T05:37:54.715Z,37.57
2019-05-16T05:40:29.675Z,37.53
2019-05-16T05:43:03.593Z,37.59
2019-05-16T05:45:37.345Z,37.56
2019-05-16T05:48:11.020Z,37.55
2019-05-16T05:50:44.743Z,37.54
2019-05-16T05:53:20.827Z,37.52
2019-05-16T05:55:54.576Z,37.54
2019-05-16T05:58:30.899Z,37.51
2019-05-16T06:01:03.713Z,37.61
2019-05-16T06:03:39.739Z,37.53
2019-05-16T06:06:12.976Z,37.53
2019-05-16T06:08:46.613Z,37.53
2019-05-16T06:11:21.461Z,37.51
2019-05-16T06:13:55.153Z,37.51
2019-05-16T06:16:30.805Z,37.51
2019-05-16T06:19:04.383Z,37.51
2019-05-16T06:21:43.623Z,37.54
2019-05-16T06:24:16.202Z,37.56
2019-05-16T06:26:50.585Z,37.59
2019-05-16T06:29:24.429Z,37.60
2019-05-16T06:32:00.099Z,37.59
2019-05-16T06:34:33.538Z,37.58
2019-05-16T06:37:09.687Z,37.57
2019-05-16T06:39:45.490Z,37.58
2019-05-16T06:42:20.615Z,37.58
2019-05-16T06:44:54.663Z,37.64
2019-05-16T06:47:30.327Z,37.60
2019-05-16T06:50:03.697Z,37.64
2019-05-16T06:52:37.531Z,37.63
2019-05-16T06:55:11.973Z,37.59
2019-05-16T06:57:45.807Z,37.56
2019-05-16T07:00:20.933Z,37.64
2019-05-16T07:02:56.848Z,37.72
2019-05-16T07:05:30.743Z,37.94
2019-05-16T07:08:04.541Z,38.12
2019-05-16T07:10:39.779Z,38.21
2019-05-16T07:13:13.826Z,38.43
2019-05-16T07:15:49.782Z,38.74
2019-05-16T07:18:22.971Z,38.77
2019-05-16T07:20:56.903Z,38.74
2019-05-16T07:23:30.799Z,38.65
2019-05-16T07:26:04.558Z,38.60
2019-05-16T07:28:40.675Z,38.72
2019-05-16T07:31:17.794Z,38.76
2019-05-16T07:33:51.035Z,38.72
2019-05-16T07:36:24.796Z,38.70
2019-05-16T07:38:59.744Z,38.69
2019-05-16T07:41:33.618Z,38.64
2019-05-16T07:44:07.339Z,38.61
2019-05-16T07:46:44.745Z,38.65
2019-05-16T07:49:16.736Z,38.67
2019-05-16T07:51:50.479Z,38.57
2019-05-16T07:54:24.205Z,38.59
2019-05-16T07:57:10.342Z,38.59
2019-05-16T07:59:33.451Z,38.52
2019-05-16T08:02:07.112Z,38.56
2019-05-16T08:04:41.006Z,38.65
2019-05-16T08:07:14.832Z,38.69
2019-05-16T08:09:50.493Z,38.70
2019-05-16T08:12:26.383Z,38.88
2019-05-16T08:15:00.877Z,38.72
2019-05-16T08:17:35.183Z,38.74
2019-05-16T08:20:10.935Z,38.74
2019-05-16T08:22:44.538Z,38.88
2019-05-16T08:25:20.400Z,39.72
2019-05-16T08:27:54.911Z,40.44
2019-05-16T08:30:31.693Z,40.46
2019-05-16T08:33:04.175Z,40.50
2019-05-16T08:35:41.088Z,40.49
2019-05-16T08:38:13.635Z,40.81
2019-05-16T08:41:04.750Z,40.67
2019-05-16T08:43:23.251Z,41.00
2019-05-16T08:45:56.994Z,41.25
2019-05-16T08:48:31.727Z,41.11
2019-05-16T08:51:06.293Z,41.49
2019-05-16T08:53:43.257Z,41.43
2019-05-16T08:56:15.470Z,41.02
2019-05-16T08:58:55.041Z,41.05
2019-05-16T09:01:25.712Z,40.77
2019-05-16T09:04:01.397Z,40.54
2019-05-16T09:06:34.956Z,40.88
2019-05-16T09:09:22.889Z,41.60
2019-05-16T09:11:48.085Z,41.25
2019-05-16T09:14:20.034Z,41.65
2019-05-16T09:16:53.817Z,41.97
2019-05-16T09:19:27.787Z,41.86
2019-05-16T09:22:01.604Z,41.68
2019-05-16T09:24:37.744Z,42.13
2019-05-16T09:27:13.045Z,42.13
2019-05-16T09:29:47.379Z,41.94
2019-05-16T09:32:21.937Z,41.89
2019-05-16T09:34:57.379Z,41.77
2019-05-16T09:37:32.155Z,41.53
2019-05-16T09:40:06.585Z,41.29
2019-05-16T09:42:40.479Z,41.26
2019-05-16T09:45:16.878Z,41.15
2019-05-16T09:47:49.694Z,40.83
2019-05-16T09:50:23.355Z,40.75
2019-05-16T09:52:57.072Z,40.94
2019-05-16T09:55:32.541Z,40.96
2019-05-16T09:58:07.347Z,40.90
2019-05-16T10:00:41.872Z,40.94
2019-05-16T10:03:20.076Z,41.13
2019-05-16T10:05:52.177Z,40.81
2019-05-16T10:08:26.721Z,41.07
2019-05-16T10:11:00.577Z,40.85
2019-05-16T10:13:34.421Z,40.80
2019-05-16T10:16:08.173Z,40.70
2019-05-16T10:18:41.952Z,40.68
2019-05-16T10:21:20.338Z,41.06
2019-05-16T10:23:51.775Z,41.13
2019-05-16T10:26:27.794Z,41.45
2019-05-16T10:29:03.244Z,41.62
2019-05-16T10:31:48.188Z,41.51
2019-05-16T10:34:13.523Z,41.76
2019-05-16T10:36:47.464Z,42.10
2019-05-16T10:39:21.706Z,41.88
2019-05-16T10:41:57.418Z,41.91
2019-05-16T10:44:31.002Z,41.73
2019-05-16T10:47:07.530Z,41.90
2019-05-16T10:49:42.113Z,41.88
2019-05-16T10:52:16.598Z,41.26
2019-05-16T10:54:58.097Z,41.03
2019-05-16T10:57:29.362Z,41.20
2019-05-16T11:00:08.993Z,41.30
2019-05-16T11:02:37.461Z,41.32
2019-05-16T11:05:25.123Z,41.28
2019-05-16T11:07:48.568Z,41.27
2019-05-16T11:10:23.114Z,41.21
2019-05-16T11:12:59.673Z,41.20
2019-05-16T11:15:32.983Z,41.45
2019-05-16T11:18:06.982Z,41.67
2019-05-16T11:20:44.839Z,42.07
2019-05-16T11:23:23.062Z,41.76
2019-05-16T11:25:55.211Z,41.93
2019-05-16T11:28:27.599Z,41.63
2019-05-16T11:31:03.833Z,41.67
2019-05-16T11:33:37.625Z,41.64
2019-05-16T11:36:12.951Z,41.59
2019-05-16T11:38:47.688Z,41.62
2019-05-16T11:41:21.726Z,41.53
2019-05-16T11:43:56.860Z,41.53
2019-05-16T11:46:30.672Z,41.46
2019-05-16T11:49:06.477Z,41.43
2019-05-16T11:51:40.212Z,41.38
2019-05-16T11:54:14.011Z,41.36
2019-05-16T11:56:47.753Z,41.28
2019-05-16T11:59:21.535Z,41.31
2019-05-16T12:01:55.383Z,41.16
2019-05-16T12:04:29.330Z,41.25
2019-05-16T12:07:03.063Z,41.11
2019-05-16T12:09:46.866Z,41.12
2019-05-16T12:12:13.174Z,41.25
2019-05-16T12:14:46.962Z,41.17
2019-05-16T12:17:21.443Z,41.24
2019-05-16T12:19:57.544Z,41.24
2019-05-16T12:22:30.726Z,41.36
2019-05-16T12:25:07.880Z,41.33
2019-05-16T12:27:42.386Z,41.65
2019-05-16T12:30:17.469Z,41.53
2019-05-16T12:32:51.199Z,41.38
2019-05-16T12:35:27.526Z,41.50
2019-05-16T12:38:00.553Z,41.40
2019-05-16T12:40:34.332Z,41.90
2019-05-16T12:43:08.049Z,42.11
2019-05-16T12:45:42.431Z,42.06
2019-05-16T12:48:19.883Z,41.61
2019-05-16T12:50:53.536Z,42.54
2019-05-16T12:53:31.625Z,43.26
2019-05-16T12:56:02.880Z,43.49
2019-05-16T12:58:41.981Z,43.31
2019-05-16T13:01:16.703Z,43.15
2019-05-16T13:03:49.001Z,42.92
2019-05-16T13:06:22.987Z,42.74
2019-05-16T13:08:57.315Z,42.71
2019-05-16T13:11:31.057Z,42.61
2019-05-16T13:14:08.077Z,42.47
2019-05-16T13:16:40.684Z,42.37
2019-05-16T13:19:14.626Z,42.29
2019-05-16T13:21:48.371Z,42.00
2019-05-16T13:24:22.611Z,42.10
2019-05-16T13:26:57.022Z,42.11
2019-05-16T13:29:31.001Z,42.04
2019-05-16T13:32:07.410Z,42.14
2019-05-16T13:34:40.067Z,41.85
2019-05-16T13:37:17.605Z,41.74
2019-05-16T13:39:49.184Z,41.72
2019-05-16T13:42:22.877Z,41.97
2019-05-16T13:44:57.853Z,42.05
2019-05-16T13:47:32.233Z,42.12
2019-05-16T13:50:11.548Z,42.30
2019-05-16T13:52:41.515Z,42.02
2019-05-16T13:55:16.721Z,41.92
2019-05-16T13:57:52.127Z,41.76
2019-05-16T14:00:27.945Z,41.75
2019-05-16T14:03:01.321Z,41.68
2019-05-16T14:05:37.755Z,41.79
2019-05-16T14:08:11.036Z,41.76
2019-05-16T14:10:48.020Z,41.71
2019-05-16T14:13:20.441Z,41.78
2019-05-16T14:15:55.224Z,41.71
2019-05-16T14:18:28.930Z,41.63
2019-05-16T14:21:03.007Z,41.61
2019-05-16T14:23:37.939Z,41.70
2019-05-16T14:26:12.246Z,41.52
2019-05-16T14:28:48.890Z,41.54
2019-05-16T14:31:21.302Z,41.56
2019-05-16T14:33:56.758Z,41.37
2019-05-16T14:36:30.669Z,41.48
2019-05-16T14:39:06.281Z,41.47
2019-05-16T14:41:39.918Z,41.49
2019-05-16T14:44:13.685Z,41.53
2019-05-16T14:46:47.684Z,41.40
2019-05-16T14:49:22.208Z,41.48
2019-05-16T14:51:58.062Z,41.74
2019-05-16T14:54:32.561Z,41.82
2019-05-16T14:57:06.378Z,41.93
2019-05-16T14:59:40.281Z,41.70
2019-05-16T15:02:13.991Z,41.75
2019-05-16T15:04:49.626Z,41.72
2019-05-16T15:07:23.587Z,41.74
2019-05-16T15:09:57.203Z,41.75
2019-05-16T15:12:31.052Z,41.72
2019-05-16T15:15:19.099Z,41.65
2019-05-16T15:17:41.217Z,41.56
2019-05-16T15:20:18.004Z,41.62
2019-05-16T15:22:50.601Z,41.35
2019-05-16T15:25:26.437Z,41.47
2019-05-16T15:28:00.516Z,41.28
2019-05-16T15:30:39.036Z,40.97
2019-05-16T15:33:09.859Z,41.23
2019-05-16T15:35:43.653Z,41.37
2019-05-16T15:38:17.281Z,41.27
2019-05-16T15:40:51.003Z,41.31
2019-05-16T15:43:27.473Z,41.12
2019-05-16T15:46:02.977Z,41.16
2019-05-16T15:48:37.238Z,41.38
2019-05-16T15:51:12.114Z,41.52
2019-05-16T15:53:45.893Z,41.66
2019-05-16T15:56:19.640Z,41.47
2019-05-16T15:58:53.231Z,41.51
2019-05-16T16:01:27.172Z,41.45
2019-05-16T16:04:00.884Z,41.47
2019-05-16T16:06:34.631Z,41.37
2019-05-16T16:09:08.620Z,41.34
2019-05-16T16:11:42.782Z,41.33
2019-05-16T16:14:20.289Z,41.28
2019-05-16T16:16:54.244Z,41.47
2019-05-16T16:19:28.096Z,41.72
2019-05-16T16:22:02.137Z,41.74
2019-05-16T16:24:35.947Z,41.67
2019-05-16T16:27:09.995Z,41.75
2019-05-16T16:29:44.326Z,41.73
2019-05-16T16:32:18.181Z,41.77
2019-05-16T16:34:51.967Z,41.78
2019-05-16T16:37:27.438Z,41.64
2019-05-16T16:40:02.102Z,41.73
2019-05-16T16:42:37.383Z,41.66
2019-05-16T16:45:11.695Z,41.63
2019-05-16T16:47:46.892Z,41.59
2019-05-16T16:50:22.084Z,41.57
2019-05-16T16:52:56.622Z,41.54
2019-05-16T16:55:30.466Z,41.49
2019-05-16T16:58:04.189Z,41.52
2019-05-16T17:00:38.168Z,41.52
2019-05-16T17:03:12.055Z,41.56
2019-05-16T17:05:46.513Z,41.54
2019-05-16T17:08:23.355Z,41.57
2019-05-16T17:10:57.569Z,41.54
2019-05-16T17:13:31.423Z,41.51
2019-05-16T17:16:18.041Z,41.79
2019-05-16T17:18:40.434Z,41.70
2019-05-16T17:21:16.863Z,41.37
2019-05-16T17:23:49.654Z,41.51
2019-05-16T17:26:23.429Z,41.54
2019-05-16T17:28:57.304Z,41.51
2019-05-16T17:31:31.024Z,41.90
2019-05-16T17:34:08.100Z,41.74
2019-05-16T17:36:40.147Z,41.74
2019-05-16T17:39:13.787Z,41.75
2019-05-16T17:41:54.435Z,41.79
2019-05-16T17:44:23.550Z,41.81
2019-05-16T17:46:57.669Z,41.83
2019-05-16T17:49:31.822Z,41.87
2019-05-16T17:52:06.942Z,41.84
2019-05-16T17:54:40.911Z,41.88
2019-05-16T17:57:16.777Z,41.84
2019-05-16T17:59:50.207Z,41.83
2019-05-16T18:02:23.996Z,41.81
2019-05-16T18:04:57.974Z,41.80
2019-05-16T18:07:32.398Z,41.75
2019-05-16T18:10:07.449Z,41.76
2019-05-16T18:12:41.270Z,41.76
2019-05-16T18:15:14.962Z,41.77
2019-05-16T18:17:48.733Z,41.70
2019-05-16T18:20:22.585Z,41.73
2019-05-16T18:22:56.956Z,41.74
2019-05-16T18:25:30.649Z,41.72
2019-05-16T18:28:07.786Z,41.63
2019-05-16T18:30:40.612Z,41.91
2019-05-16T18:33:16.657Z,41.90
2019-05-16T18:35:50.105Z,41.81
2019-05-16T18:38:23.905Z,41.69
2019-05-16T18:40:57.659Z,41.67
2019-05-16T18:43:31.705Z,41.91
2019-05-16T18:46:07.269Z,41.83
2019-05-16T18:48:41.742Z,41.82
2019-05-16T18:51:15.493Z,41.82
2019-05-16T18:53:49.364Z,41.89
2019-05-16T18:56:23.491Z,41.71
2019-05-16T18:58:57.416Z,41.72
2019-05-16T19:01:31.319Z,41.71
2019-05-16T19:04:06.899Z,41.73
2019-05-16T19:06:40.587Z,41.96
2019-05-16T19:09:16.467Z,41.79
2019-05-16T19:11:49.773Z,41.78
2019-05-16T19:14:24.117Z,41.83
2019-05-16T19:16:57.975Z,41.77
2019-05-16T19:19:31.724Z,42.01
2019-05-16T19:22:06.550Z,41.92
2019-05-16T19:24:42.729Z,42.07
2019-05-16T19:27:17.264Z,42.07
2019-05-16T19:29:51.357Z,42.31
2019-05-16T19:32:25.190Z,42.56
2019-05-16T19:34:58.938Z,42.33
2019-05-16T19:37:37.901Z,41.72
2019-05-16T19:40:08.913Z,42.22
2019-05-16T19:42:42.723Z,42.61
2019-05-16T19:45:17.163Z,43.02
2019-05-16T19:47:51.847Z,43.21
2019-05-16T19:50:26.716Z,43.98
2019-05-16T19:53:00.791Z,43.11
2019-05-16T19:55:36.520Z,42.47
2019-05-16T19:58:10.796Z,42.27
2019-05-16T20:00:46.510Z,42.23
2019-05-16T20:03:20.143Z,42.44
2019-05-16T20:05:54.037Z,42.37
2019-05-16T20:08:28.005Z,42.46
2019-05-16T20:11:02.056Z,42.64
2019-05-16T20:13:36.710Z,42.79
2019-05-16T20:16:11.788Z,43.30
2019-05-16T20:18:46.622Z,43.22
2019-05-16T20:21:20.351Z,44.10
2019-05-16T20:23:54.195Z,44.12
2019-05-16T20:26:29.028Z,44.03
2019-05-16T20:29:04.435Z,44.56
2019-05-16T20:31:38.302Z,44.72
2019-05-16T20:34:13.567Z,44.20
2019-05-16T20:36:47.535Z,44.92
2019-05-16T20:39:26.692Z,44.72
2019-05-16T20:41:59.991Z,44.19
2019-05-16T20:44:33.772Z,44.31
2019-05-16T20:47:08.498Z,44.65
2019-05-16T20:49:42.620Z,44.72
2019-05-16T20:52:17.474Z,44.15
2019-05-16T20:54:52.467Z,44.51
2019-05-16T20:57:26.605Z,44.64
2019-05-16T21:00:00.422Z,44.56
2019-05-16T21:02:34.253Z,44.36
2019-05-16T21:05:08.223Z,44.58
2019-05-16T21:07:46.090Z,44.59
2019-05-16T21:10:20.276Z,44.49
2019-05-16T21:12:57.266Z,44.42
2019-05-16T21:15:30.474Z,44.46
2019-05-16T21:18:04.183Z,44.39
2019-05-16T21:20:38.999Z,44.25
2019-05-16T21:23:12.879Z,44.25
2019-05-16T21:25:46.982Z,44.22
2019-05-16T21:28:20.795Z,43.92
2019-05-16T21:30:56.711Z,43.97
2019-05-16T21:33:29.901Z,43.80
2019-05-16T21:36:07.041Z,43.96
2019-05-16T21:38:40.587Z,43.40
2019-05-16T21:41:16.685Z,43.61
2019-05-16T21:43:49.785Z,43.57
2019-05-16T21:46:23.523Z,43.32
2019-05-16T21:48:57.280Z,43.91
2019-05-16T21:51:31.103Z,43.62
2019-05-16T21:54:07.035Z,44.10
2019-05-16T21:56:40.375Z,44.28
2019-05-16T21:59:14.168Z,43.84
2019-05-16T22:01:47.916Z,44.07
2019-05-16T22:04:22.144Z,43.62
2019-05-16T22:06:56.722Z,43.94
2019-05-16T22:09:30.588Z,43.94
2019-05-16T22:12:06.700Z,43.82
2019-05-16T22:14:50.286Z,43.93
2019-05-16T22:17:24.038Z,43.99
2019-05-16T22:19:59.357Z,43.86
2019-05-16T22:22:37.915Z,43.83
2019-05-16T22:25:11.172Z,43.86
2019-05-16T22:27:48.514Z,43.85
2019-05-16T22:30:22.436Z,43.81
2019-05-16T22:32:59.144Z,43.75
2019-05-16T22:35:32.909Z,43.67
2019-05-16T22:38:06.816Z,43.66
2019-05-16T22:40:40.664Z,43.60
2019-05-16T22:43:14.445Z,43.53
2019-05-16T22:45:51.138Z,43.48
2019-05-16T22:48:26.636Z,43.43
2019-05-16T22:51:00.454Z,43.40
2019-05-16T22:53:36.685Z,43.35
2019-05-16T22:56:09.850Z,43.33
2019-05-16T22:58:43.603Z,43.29
2019-05-16T23:01:17.681Z,43.25
2019-05-16T23:03:51.751Z,43.24
2019-05-16T23:06:26.919Z,43.19
2019-05-16T23:09:00.731Z,43.13
2019-05-16T23:11:36.345Z,43.10
2019-05-16T23:14:11.888Z,43.09
2019-05-16T23:16:46.416Z,43.06
2019-05-16T23:19:20.295Z,43.03
2019-05-16T23:21:54.064Z,43.02
2019-05-16T23:24:29.196Z,42.98
2019-05-16T23:27:02.939Z,42.92
2019-05-16T23:29:36.890Z,42.94
2019-05-16T23:32:10.716Z,42.89
2019-05-16T23:34:46.503Z,42.83
2019-05-16T23:37:19.934Z,42.85
2019-05-16T23:39:53.636Z,42.83
2019-05-16T23:42:27.450Z,42.79
2019-05-16T23:45:01.743Z,42.77
2019-05-16T23:47:36.579Z,42.75
2019-05-16T23:50:10.392Z,42.72
2019-05-16T23:52:44.238Z,42.71
2019-05-16T23:55:17.966Z,42.67
2019-05-16T23:57:51.608Z,42.66
